createdAt,value
2022-11-25T00:00:22.650Z,9.90
2022-11-25T00:02:52.000Z,9.90
2022-11-25T00:05:19.979Z,9.90
2022-11-25T00:07:47.881Z,9.90
2022-11-25T00:10:15.848Z,9.90
2022-11-25T00:12:43.998Z,9.90
2022-11-25T00:15:12.107Z,9.90
2022-11-25T00:17:40.032Z,9.90
2022-11-25T00:20:10.072Z,9.90
2022-11-25T00:22:37.903Z,10.00
2022-11-25T00:25:06.206Z,10.00
2022-11-25T00:27:34.316Z,10.00
2022-11-25T00:30:02.275Z,10.00
2022-11-25T00:32:30.249Z,10.00
2022-11-25T00:34:58.315Z,10.00
2022-11-25T00:37:27.502Z,10.00
2022-11-25T00:39:55.423Z,9.90
2022-11-25T00:42:41.008Z,9.90
2022-11-25T00:45:09.342Z,9.90
2022-11-25T00:47:37.261Z,9.90
2022-11-25T00:50:05.805Z,9.90
2022-11-25T00:52:37.113Z,9.90
2022-11-25T00:55:05.420Z,9.80
2022-11-25T00:57:33.213Z,9.90
2022-11-25T01:00:01.110Z,9.90
2022-11-25T01:02:29.055Z,9.90
2022-11-25T01:04:57.077Z,9.90
2022-11-25T01:07:25.240Z,9.90
2022-11-25T01:09:54.536Z,10.00
2022-11-25T01:12:22.415Z,10.00
2022-11-25T01:14:50.372Z,10.00
2022-11-25T01:17:18.288Z,10.00
2022-11-25T01:19:46.154Z,10.00
2022-11-25T01:22:14.227Z,10.00
2022-11-25T01:24:42.315Z,10.10
2022-11-25T01:27:11.543Z,10.10
2022-11-25T01:29:41.780Z,10.10
2022-11-25T01:32:09.846Z,10.10
2022-11-25T01:34:38.359Z,10.10
2022-11-25T01:37:06.704Z,10.10
2022-11-25T01:39:34.787Z,10.20
2022-11-25T01:42:02.888Z,10.20
2022-11-25T01:44:32.887Z,10.20
2022-11-25T01:47:06.239Z,10.20
2022-11-25T01:49:37.800Z,10.20
2022-11-25T01:52:10.321Z,10.30
2022-11-25T01:54:39.653Z,10.30
2022-11-25T01:57:09.500Z,10.30
2022-11-25T01:59:41.116Z,10.30
2022-11-25T02:02:09.895Z,10.30
2022-11-25T02:04:39.523Z,10.30
2022-11-25T02:07:11.131Z,10.30
2022-11-25T02:09:40.554Z,10.30
2022-11-25T02:12:08.758Z,10.30
2022-11-25T02:14:38.423Z,10.30
2022-11-25T02:17:06.562Z,10.30
2022-11-25T02:19:42.303Z,10.30
2022-11-25T02:22:14.546Z,10.30
2022-11-25T02:24:44.654Z,10.30
2022-11-25T02:27:14.210Z,10.30
2022-11-25T02:29:43.352Z,10.30
2022-11-25T02:32:11.482Z,10.30
2022-11-25T02:34:47.350Z,10.30
2022-11-25T02:37:15.787Z,10.30
2022-11-25T02:39:43.771Z,10.30
2022-11-25T02:42:11.929Z,10.20
2022-11-25T02:44:41.261Z,10.20
2022-11-25T02:47:09.230Z,10.20
2022-11-25T02:49:37.314Z,10.20
2022-11-25T02:52:05.401Z,10.10
2022-11-25T02:54:34.528Z,10.10
2022-11-25T02:57:02.580Z,10.10
2022-11-25T02:59:30.432Z,10.10
2022-11-25T03:01:59.951Z,10.10
2022-11-25T03:04:27.910Z,10.10
2022-11-25T03:06:55.903Z,10.00
2022-11-25T03:09:24.059Z,10.00
2022-11-25T03:12:09.509Z,10.00
2022-11-25T03:14:37.641Z,10.00
2022-11-25T03:17:07.095Z,9.90
2022-11-25T03:19:35.156Z,9.90
2022-11-25T03:22:03.142Z,10.00
2022-11-25T03:24:31.054Z,9.90
2022-11-25T03:26:59.083Z,9.90
2022-11-25T03:29:26.953Z,9.90
2022-11-25T03:31:54.889Z,9.90
2022-11-25T03:34:24.331Z,9.80
2022-11-25T03:36:52.464Z,9.80
2022-11-25T03:39:20.375Z,9.80
2022-11-25T03:41:48.305Z,9.80
2022-11-25T03:44:16.514Z,9.80
2022-11-25T03:46:44.521Z,9.80
2022-11-25T03:49:12.578Z,9.80
2022-11-25T03:51:41.916Z,9.80
2022-11-25T03:54:09.812Z,9.70
2022-11-25T03:56:37.770Z,9.70
2022-11-25T03:59:05.824Z,9.70
2022-11-25T04:01:33.700Z,9.70
2022-11-25T04:04:01.773Z,9.60
2022-11-25T04:06:30.039Z,9.60
2022-11-25T04:08:59.287Z,9.50
2022-11-25T04:11:47.555Z,9.50
2022-11-25T04:14:14.553Z,9.40
2022-11-25T04:16:42.498Z,9.40
2022-11-25T04:19:10.442Z,9.30
2022-11-25T04:21:38.451Z,9.30
2022-11-25T04:24:08.457Z,9.20
2022-11-25T04:26:36.664Z,9.10
2022-11-25T04:29:04.535Z,9.10
2022-11-25T04:31:32.459Z,9.10
2022-11-25T04:34:00.671Z,9.00
2022-11-25T04:36:28.577Z,9.00
2022-11-25T04:38:56.691Z,9.00
2022-11-25T04:41:26.087Z,9.00
2022-11-25T04:43:54.239Z,9.00
2022-11-25T04:46:23.528Z,9.00
2022-11-25T04:48:51.629Z,9.10
2022-11-25T04:51:19.638Z,9.10
2022-11-25T04:53:47.545Z,9.00
2022-11-25T04:56:17.474Z,9.00
2022-11-25T04:59:10.050Z,9.00
2022-11-25T05:01:38.231Z,9.00
2022-11-25T05:04:06.285Z,8.90
2022-11-25T05:06:34.259Z,8.90
2022-11-25T05:09:02.295Z,8.90
2022-11-25T05:11:30.331Z,8.90
2022-11-25T05:13:59.624Z,8.90
2022-11-25T05:16:27.694Z,9.00
2022-11-25T05:18:56.444Z,9.00
2022-11-25T05:21:24.324Z,9.00
2022-11-25T05:23:55.797Z,9.00
2022-11-25T05:26:24.163Z,8.90
2022-11-25T05:28:52.034Z,8.90
2022-11-25T05:31:21.413Z,8.90
2022-11-25T05:33:49.581Z,8.80
2022-11-25T05:36:17.754Z,8.70
2022-11-25T05:38:45.977Z,8.80
2022-11-25T05:41:14.015Z,8.80
2022-11-25T05:43:43.099Z,8.80
2022-11-25T05:46:11.313Z,8.80
2022-11-25T05:48:40.747Z,8.80
2022-11-25T05:51:09.180Z,8.80
2022-11-25T05:53:38.107Z,8.80
2022-11-25T05:56:07.743Z,8.80
2022-11-25T05:58:35.715Z,8.80
2022-11-25T06:01:07.347Z,8.90
2022-11-25T06:03:35.671Z,8.90
2022-11-25T06:06:05.704Z,9.00
2022-11-25T06:08:33.635Z,8.90
2022-11-25T06:11:04.814Z,8.90
2022-11-25T06:13:33.045Z,8.90
2022-11-25T06:16:07.441Z,8.90
2022-11-25T06:18:36.441Z,8.90
2022-11-25T06:21:06.398Z,8.90
2022-11-25T06:23:34.401Z,8.90
2022-11-25T06:26:09.273Z,8.90
2022-11-25T06:28:37.578Z,8.90
2022-11-25T06:31:06.658Z,8.80
2022-11-25T06:33:34.602Z,8.80
2022-11-25T06:36:03.948Z,8.80
2022-11-25T06:38:33.279Z,8.80
2022-11-25T06:41:01.720Z,8.70
2022-11-25T06:43:29.766Z,8.70
2022-11-25T06:46:02.512Z,8.70
2022-11-25T06:48:30.679Z,8.70
2022-11-25T06:50:59.013Z,8.70
2022-11-25T06:53:27.644Z,8.70
2022-11-25T06:56:07.817Z,8.60
2022-11-25T06:58:36.815Z,8.60
2022-11-25T07:01:06.612Z,8.60
2022-11-25T07:03:34.776Z,8.60
2022-11-25T07:06:03.826Z,8.60
2022-11-25T07:08:34.119Z,8.60
2022-11-25T07:11:13.431Z,8.60
2022-11-25T07:13:48.010Z,8.60
2022-11-25T07:16:29.402Z,8.50
2022-11-25T07:19:00.229Z,8.50
2022-11-25T07:21:28.457Z,8.50
2022-11-25T07:23:56.683Z,8.50
2022-11-25T07:26:27.512Z,8.50
2022-11-25T07:28:56.798Z,8.40
2022-11-25T07:31:29.082Z,8.50
2022-11-25T07:34:00.753Z,8.40
2022-11-25T07:36:29.575Z,8.40
2022-11-25T07:38:58.529Z,8.40
2022-11-25T07:41:29.084Z,8.40
2022-11-25T07:43:57.936Z,8.50
2022-11-25T07:46:27.615Z,8.50
2022-11-25T07:48:56.408Z,8.50
2022-11-25T07:51:25.770Z,8.50
2022-11-25T07:53:54.830Z,8.50
2022-11-25T07:56:23.180Z,8.50
2022-11-25T07:58:52.665Z,8.50
2022-11-25T08:01:21.044Z,8.50
2022-11-25T08:03:49.791Z,8.50
2022-11-25T08:06:18.655Z,8.50
2022-11-25T08:08:47.184Z,8.50
2022-11-25T08:11:16.223Z,8.50
2022-11-25T08:13:44.403Z,8.60
2022-11-25T08:16:14.320Z,8.60
2022-11-25T08:18:43.365Z,8.60
2022-11-25T08:21:12.657Z,8.60
2022-11-25T08:23:41.334Z,8.60
2022-11-25T08:26:11.142Z,8.70
2022-11-25T08:28:40.127Z,8.70
2022-11-25T08:31:09.400Z,8.70
2022-11-25T08:33:38.969Z,8.80
2022-11-25T08:36:07.185Z,8.80
2022-11-25T08:38:35.386Z,8.80
2022-11-25T08:41:03.997Z,8.90
2022-11-25T08:43:32.068Z,8.90
2022-11-25T08:46:00.271Z,8.90
2022-11-25T08:48:28.475Z,9.00
2022-11-25T08:50:58.093Z,9.00
2022-11-25T08:53:26.167Z,9.10
2022-11-25T08:55:54.570Z,9.10
2022-11-25T08:58:22.491Z,9.20
2022-11-25T09:00:50.433Z,9.20
2022-11-25T09:03:19.121Z,9.20
2022-11-25T09:05:47.205Z,9.30
2022-11-25T09:08:18.715Z,9.30
2022-11-25T09:10:46.898Z,9.40
2022-11-25T09:13:14.749Z,9.50
2022-11-25T09:15:42.663Z,9.50
2022-11-25T09:18:12.724Z,9.50
2022-11-25T09:20:41.653Z,9.60
2022-11-25T09:23:10.498Z,9.60
2022-11-25T09:25:40.430Z,9.70
2022-11-25T09:28:09.254Z,9.70
2022-11-25T09:30:38.562Z,9.70
2022-11-25T09:33:07.539Z,9.70
2022-11-25T09:35:35.752Z,9.80
2022-11-25T09:38:04.062Z,9.80
2022-11-25T09:40:36.461Z,9.80
2022-11-25T09:43:28.071Z,9.80
2022-11-25T09:46:19.947Z,9.90
2022-11-25T09:48:56.588Z,9.90
2022-11-25T09:51:27.992Z,10.00
2022-11-25T09:53:58.019Z,10.00
2022-11-25T09:56:33.266Z,10.00
2022-11-25T09:59:06.274Z,10.00
2022-11-25T10:01:42.038Z,10.10
2022-11-25T10:04:12.141Z,10.10
2022-11-25T10:06:48.410Z,10.10
2022-11-25T10:09:23.171Z,10.20
2022-11-25T10:11:52.710Z,10.20
2022-11-25T10:14:27.857Z,10.20
2022-11-25T10:17:00.057Z,10.30
2022-11-25T10:19:36.243Z,10.30
2022-11-25T10:22:13.047Z,10.40
2022-11-25T10:24:41.514Z,10.40
2022-11-25T10:27:16.872Z,10.40
2022-11-25T10:29:47.413Z,10.40
2022-11-25T10:32:21.380Z,10.60
2022-11-25T10:34:51.780Z,10.50
2022-11-25T10:37:24.720Z,10.60
2022-11-25T10:39:52.529Z,10.60
2022-11-25T10:42:21.691Z,10.60
2022-11-25T10:44:55.305Z,10.60
2022-11-25T10:47:37.708Z,10.70
2022-11-25T10:50:17.513Z,10.70
2022-11-25T12:50:58.872Z,12.30
2022-11-25T12:53:34.281Z,12.30
2022-11-25T12:56:08.958Z,12.30
2022-11-25T12:58:49.688Z,12.30
2022-11-25T13:01:29.708Z,12.30
2022-11-25T13:04:12.852Z,12.30
2022-11-25T13:06:53.528Z,12.20
2022-11-25T13:09:34.387Z,12.30
2022-11-25T13:12:13.315Z,12.20
2022-11-25T13:14:57.067Z,12.20
2022-11-25T13:17:29.538Z,12.10
2022-11-25T13:20:13.755Z,12.10
2022-11-25T13:22:43.905Z,12.10
2022-11-25T13:25:25.621Z,12.10
2022-11-25T13:27:58.427Z,12.10
2022-11-25T13:30:45.489Z,11.90
2022-11-25T13:33:33.002Z,12.00
2022-11-25T13:36:04.431Z,12.00
2022-11-25T13:38:39.356Z,12.00
2022-11-25T13:41:22.770Z,12.00
2022-11-25T13:44:02.790Z,12.00
2022-11-25T13:46:35.480Z,12.00
2022-11-25T13:49:05.615Z,12.10
2022-11-25T13:51:33.837Z,12.10
2022-11-25T13:54:15.050Z,12.10
2022-11-25T13:56:43.178Z,12.10
2022-11-25T13:59:38.942Z,12.10
2022-11-25T14:02:26.164Z,12.10
2022-11-25T14:04:58.497Z,12.20
2022-11-25T14:07:29.388Z,12.20
2022-11-25T14:10:11.935Z,12.20
2022-11-25T14:12:49.369Z,12.10
2022-11-25T14:15:27.924Z,12.00
2022-11-25T14:18:14.514Z,11.90
2022-11-25T14:20:50.862Z,11.80
2022-11-25T14:23:37.080Z,11.70
2022-11-25T14:26:26.814Z,11.60
2022-11-25T14:29:07.366Z,11.60
2022-11-25T14:31:39.504Z,11.40
2022-11-25T14:34:13.788Z,11.40
2022-11-25T14:36:45.022Z,11.40
2022-11-25T14:39:20.245Z,11.40
2022-11-25T14:41:58.836Z,11.40
2022-11-25T14:44:29.851Z,11.40
2022-11-25T14:47:06.751Z,11.50
2022-11-25T14:52:54.850Z,11.60
2022-11-25T14:55:28.023Z,11.70
2022-11-25T14:57:57.883Z,11.70
2022-11-25T15:00:26.163Z,11.80
2022-11-25T15:02:56.144Z,11.80
2022-11-25T15:05:26.748Z,11.80
2022-11-25T15:07:59.994Z,11.90
2022-11-25T15:10:38.318Z,11.90
2022-11-25T15:13:12.995Z,11.80
2022-11-25T15:15:42.200Z,11.80
2022-11-25T15:18:14.546Z,11.70
2022-11-25T15:20:46.723Z,11.60
2022-11-25T15:23:22.721Z,11.60
2022-11-25T15:25:51.895Z,11.50
2022-11-25T15:28:24.362Z,11.40
2022-11-25T15:31:01.705Z,11.30
2022-11-25T15:33:30.250Z,11.20
2022-11-25T15:36:02.228Z,11.20
2022-11-25T15:38:38.112Z,11.10
2022-11-25T15:41:12.892Z,11.00
2022-11-25T15:43:46.469Z,11.00
2022-11-25T15:46:18.728Z,10.90
2022-11-25T15:48:48.469Z,10.90
2022-11-25T15:51:23.647Z,10.80
2022-11-25T15:53:58.084Z,10.80
2022-11-25T15:56:30.646Z,10.70
2022-11-25T15:59:02.550Z,10.70
2022-11-25T16:01:41.269Z,10.70
2022-11-25T16:04:21.518Z,10.60
2022-11-25T16:06:58.766Z,10.60
2022-11-25T16:09:33.637Z,10.60
2022-11-25T16:12:20.226Z,10.60
2022-11-25T16:14:52.891Z,10.60
2022-11-25T16:17:27.018Z,10.70
2022-11-25T16:20:02.690Z,10.70
2022-11-25T16:22:34.814Z,10.80
2022-11-25T16:25:12.989Z,10.70
2022-11-25T16:27:46.903Z,10.70
2022-11-25T16:30:22.257Z,10.80
2022-11-25T16:32:51.702Z,10.80
2022-11-25T16:35:22.452Z,10.70
2022-11-25T16:37:50.861Z,10.70
2022-11-25T16:40:20.987Z,10.70
2022-11-25T16:42:54.232Z,10.70
2022-11-25T16:45:32.796Z,10.60
2022-11-25T16:48:01.455Z,10.60
2022-11-25T16:50:34.247Z,10.60
2022-11-25T16:53:03.835Z,10.70
2022-11-25T16:55:37.841Z,10.70
2022-11-25T16:58:08.867Z,10.70
2022-11-25T17:00:40.777Z,10.60
2022-11-25T17:03:11.880Z,10.60
2022-11-25T17:05:40.724Z,10.60
2022-11-25T17:08:11.864Z,10.50
2022-11-25T17:10:42.322Z,10.50
2022-11-25T17:13:16.352Z,10.50
2022-11-25T17:15:47.760Z,10.40
2022-11-25T17:18:18.446Z,10.40
2022-11-25T17:20:54.516Z,10.30
2022-11-25T17:23:27.031Z,10.30
2022-11-25T17:25:56.612Z,10.20
2022-11-25T17:28:25.701Z,10.10
2022-11-25T17:30:56.227Z,10.10
2022-11-25T17:33:25.539Z,10.00
2022-11-25T17:35:56.271Z,10.00
2022-11-25T17:38:27.123Z,9.90
2022-11-25T17:40:57.118Z,9.90
2022-11-25T17:43:34.507Z,9.80
2022-11-25T17:46:05.889Z,9.80
2022-11-25T17:48:37.776Z,9.80
2022-11-25T17:51:13.041Z,9.80
2022-11-25T17:53:47.789Z,9.70
2022-11-25T17:56:23.109Z,9.70
2022-11-25T17:58:56.035Z,9.60
2022-11-25T18:01:32.910Z,9.60
2022-11-25T18:04:04.615Z,9.50
2022-11-25T18:06:32.687Z,9.50
2022-11-25T18:09:04.057Z,9.50
2022-11-25T18:11:33.823Z,9.50
2022-11-25T18:14:08.929Z,9.40
2022-11-25T18:16:41.760Z,9.40
2022-11-25T18:19:12.033Z,9.40
2022-11-25T18:21:40.761Z,9.30
2022-11-25T18:24:10.634Z,9.30
2022-11-25T18:26:44.876Z,9.30
2022-11-25T18:29:20.505Z,9.30
2022-11-25T18:31:51.800Z,9.20
2022-11-25T18:34:23.281Z,9.20
2022-11-25T18:36:55.378Z,9.10
2022-11-25T18:39:26.402Z,9.00
2022-11-25T18:41:58.792Z,8.90
2022-11-25T18:44:29.813Z,8.80
2022-11-25T18:46:59.845Z,8.90
2022-11-25T18:49:28.340Z,8.80
2022-11-25T18:51:56.576Z,8.80
2022-11-25T18:54:25.034Z,8.80
2022-11-25T18:56:53.427Z,8.80
2022-11-25T18:59:27.239Z,8.70
2022-11-25T19:01:55.968Z,8.70
2022-11-25T19:04:26.675Z,8.60
2022-11-25T19:06:55.551Z,8.60
2022-11-25T19:09:23.901Z,8.60
2022-11-25T19:11:53.007Z,8.60
2022-11-25T19:14:27.783Z,8.50
2022-11-25T19:16:58.769Z,8.40
2022-11-25T19:19:28.637Z,8.40
2022-11-25T19:21:58.867Z,8.30
2022-11-25T19:24:27.018Z,8.30
2022-11-25T19:27:09.337Z,8.20
2022-11-25T22:34:48.575Z,7.40
2022-11-25T22:37:20.972Z,7.40
2022-11-25T22:39:48.918Z,7.40
2022-11-25T22:42:18.639Z,7.40
2022-11-25T22:44:47.895Z,7.30
2022-11-25T22:47:18.981Z,7.30
2022-11-25T22:49:49.006Z,7.20
2022-11-25T22:52:20.078Z,7.20
2022-11-25T22:54:48.061Z,7.20
2022-11-25T22:57:16.139Z,7.20
2022-11-25T22:59:44.292Z,7.20
2022-11-25T23:02:16.359Z,7.20
2022-11-25T23:04:45.440Z,7.20
2022-11-25T23:07:14.714Z,7.20
2022-11-25T23:09:43.224Z,7.20
2022-11-25T23:12:12.328Z,7.20
2022-11-25T23:14:40.297Z,7.10
2022-11-25T23:17:12.026Z,7.10
2022-11-25T23:19:39.989Z,7.10
2022-11-25T23:22:10.636Z,7.10
2022-11-25T23:24:40.995Z,7.10
2022-11-25T23:27:08.960Z,7.00
2022-11-25T23:29:37.030Z,7.00
2022-11-25T23:32:06.468Z,7.00
2022-11-25T23:34:35.414Z,6.90
2022-11-25T23:37:03.837Z,6.90
2022-11-25T23:39:32.200Z,6.90
2022-11-25T23:42:01.640Z,6.90
2022-11-25T23:44:30.828Z,7.00
2022-11-25T23:47:01.815Z,7.00
2022-11-25T23:49:31.117Z,7.00
2022-11-25T23:52:05.982Z,6.90
2022-11-25T23:54:40.730Z,6.90
2022-11-25T23:57:13.828Z,6.90
2022-11-25T23:59:41.875Z,6.90
